sensor_id;sensor_type;location;lat;lon;timestamp;pressure;altitude;pressure_sealevel;temperature;humidity
81025;BME280;70500;50.292;6.666;2023-07-29T00:00:27;95752.81;;;20.58;63.27
81025;BME280;70500;50.292;6.666;2023-07-29T00:02:56;95758.50;;;20.60;63.55
81025;BME280;70500;50.292;6.666;2023-07-29T00:05:27;95750.06;;;20.58;63.29
81025;BME280;70500;50.292;6.666;2023-07-29T00:07:56;95754.78;;;20.57;63.44
81025;BME280;70500;50.292;6.666;2023-07-29T00:10:25;95750.06;;;20.58;63.31
81025;BME280;70500;50.292;6.666;2023-07-29T00:12:55;95744.59;;;20.58;63.35
81025;BME280;70500;50.292;6.666;2023-07-29T00:15:24;95742.59;;;20.58;62.97
81025;BME280;70500;50.292;6.666;2023-07-29T00:17:53;95739.88;;;20.58;63.59
81025;BME280;70500;50.292;6.666;2023-07-29T00:20:22;95738.38;;;20.57;63.39
81025;BME280;70500;50.292;6.666;2023-07-29T00:22:53;95735.66;;;20.57;63.76
81025;BME280;70500;50.292;6.666;2023-07-29T00:25:22;95734.16;;;20.56;63.70
81025;BME280;70500;50.292;6.666;2023-07-29T00:27:51;95732.16;;;20.57;63.97
81025;BME280;70500;50.292;6.666;2023-07-29T00:30:22;95731.44;;;20.56;63.60
81025;BME280;70500;50.292;6.666;2023-07-29T00:32:51;95734.91;;;20.57;63.85
81025;BME280;70500;50.292;6.666;2023-07-29T00:35:20;95740.88;;;20.55;63.73
81025;BME280;70500;50.292;6.666;2023-07-29T00:37:49;95734.91;;;20.57;64.04
81025;BME280;70500;50.292;6.666;2023-07-29T00:40:22;95731.44;;;20.56;63.84
81025;BME280;70500;50.292;6.666;2023-07-29T00:42:51;95743.09;;;20.57;63.79
81025;BME280;70500;50.292;6.666;2023-07-29T00:45:20;95727.22;;;20.55;64.19
81025;BME280;70500;50.292;6.666;2023-07-29T00:47:50;95741.88;;;20.58;63.69
81025;BME280;70500;50.292;6.666;2023-07-29T00:50:20;95723.22;;;20.56;63.60
81025;BME280;70500;50.292;6.666;2023-07-29T00:52:50;95725.47;;;20.58;63.25
81025;BME280;70500;50.292;6.666;2023-07-29T00:55:21;95721.22;;;20.57;63.30
81025;BME280;70500;50.292;6.666;2023-07-29T00:57:50;95716.00;;;20.59;63.05
81025;BME280;70500;50.292;6.666;2023-07-29T01:00:22;95713.28;;;20.59;63.45
81025;BME280;70500;50.292;6.666;2023-07-29T01:02:52;95708.31;;;20.57;63.48
81025;BME280;70500;50.292;6.666;2023-07-29T01:05:30;95700.34;;;20.59;62.98
81025;BME280;70500;50.292;6.666;2023-07-29T01:08:08;95698.63;;;20.56;63.46
81025;BME280;70500;50.292;6.666;2023-07-29T01:10:50;95700.09;;;20.57;63.33
81025;BME280;70500;50.292;6.666;2023-07-29T01:13:31;95700.84;;;20.58;63.10
81025;BME280;70500;50.292;6.666;2023-07-29T01:16:07;95701.84;;;20.55;63.48
81025;BME280;70500;50.292;6.666;2023-07-29T01:18:39;95698.63;;;20.56;63.35
81025;BME280;70500;50.292;6.666;2023-07-29T01:21:11;95698.63;;;20.56;63.41
81025;BME280;70500;50.292;6.666;2023-07-29T01:23:42;95702.09;;;20.57;63.46
81025;BME280;70500;50.292;6.666;2023-07-29T01:26:12;95704.31;;;20.58;63.62
81025;BME280;70500;50.292;6.666;2023-07-29T01:28:41;95710.31;;;20.57;64.09
81025;BME280;70500;50.292;6.666;2023-07-29T01:31:16;95720.00;;;20.58;63.51
81025;BME280;70500;50.292;6.666;2023-07-29T01:33:58;95718.00;;;20.58;63.66
81025;BME280;70500;50.292;6.666;2023-07-29T01:36:32;95716.75;;;20.59;63.06
81025;BME280;70500;50.292;6.666;2023-07-29T01:39:04;95710.53;;;20.59;63.24
81025;BME280;70500;50.292;6.666;2023-07-29T01:41:34;95710.53;;;20.59;63.14
81025;BME280;70500;50.292;6.666;2023-07-29T01:44:06;95706.56;;;20.60;63.05
81025;BME280;70500;50.292;6.666;2023-07-29T01:46:37;95700.09;;;20.57;63.20
81025;BME280;70500;50.292;6.666;2023-07-29T01:49:07;95695.88;;;20.56;62.95
81025;BME280;70500;50.292;6.666;2023-07-29T01:51:36;95698.13;;;20.58;63.31
81025;BME280;70500;50.292;6.666;2023-07-29T01:54:07;95698.63;;;20.56;63.21
81025;BME280;70500;50.292;6.666;2023-07-29T01:56:36;95685.44;;;20.55;63.20
81025;BME280;70500;50.292;6.666;2023-07-29T01:59:06;95698.13;;;20.58;63.36
81025;BME280;70500;50.292;6.666;2023-07-29T02:01:35;95691.66;;;20.55;63.09
81025;BME280;70500;50.292;6.666;2023-07-29T02:04:04;95690.41;;;20.56;63.05
81025;BME280;70500;50.292;6.666;2023-07-29T02:06:33;95685.44;;;20.55;63.60
81025;BME280;70500;50.292;6.666;2023-07-29T02:09:03;95688.94;;;20.55;63.02
81025;BME280;70500;50.292;6.666;2023-07-29T02:11:34;95677.75;;;20.53;63.42
81025;BME280;70500;50.292;6.666;2023-07-29T02:14:03;95677.75;;;20.53;63.27
81025;BME280;70500;50.292;6.666;2023-07-29T02:16:32;95675.03;;;20.53;63.11
81025;BME280;70500;50.292;6.666;2023-07-29T02:19:03;95673.03;;;20.54;63.25
81025;BME280;70500;50.292;6.666;2023-07-29T02:21:32;95671.53;;;20.53;63.34
81025;BME280;70500;50.292;6.666;2023-07-29T02:24:01;95669.06;;;20.55;62.89
81025;BME280;70500;50.292;6.666;2023-07-29T02:26:30;95669.56;;;20.53;63.06
81025;BME280;70500;50.292;6.666;2023-07-29T02:29:01;95657.13;;;20.52;63.19
81025;BME280;70500;50.292;6.666;2023-07-29T02:31:30;95659.13;;;20.52;63.35
81025;BME280;70500;50.292;6.666;2023-07-29T02:33:59;95652.91;;;20.51;63.24
81025;BME280;70500;50.292;6.666;2023-07-29T02:36:28;95659.88;;;20.52;63.49
81025;BME280;70500;50.292;6.666;2023-07-29T02:38:58;95665.09;;;20.50;63.17
81025;BME280;70500;50.292;6.666;2023-07-29T02:41:27;95661.34;;;20.53;63.62
81025;BME280;70500;50.292;6.666;2023-07-29T02:43:56;95657.13;;;20.52;63.00
81025;BME280;70500;50.292;6.666;2023-07-29T02:46:27;95659.34;;;20.54;62.93
81025;BME280;70500;50.292;6.666;2023-07-29T02:48:56;95658.38;;;20.51;63.46
81025;BME280;70500;50.292;6.666;2023-07-29T02:51:25;95656.38;;;20.52;63.75
81025;BME280;70500;50.292;6.666;2023-07-29T02:53:54;95664.09;;;20.53;63.17
81025;BME280;70500;50.292;6.666;2023-07-29T02:56:23;95657.88;;;20.53;63.56
81025;BME280;70500;50.292;6.666;2023-07-29T02:58:52;95648.94;;;20.52;63.46
81025;BME280;70500;50.292;6.666;2023-07-29T03:01:22;95662.59;;;20.52;63.33
81025;BME280;70500;50.292;6.666;2023-07-29T03:03:54;95660.88;;;20.49;63.39
81025;BME280;70500;50.292;6.666;2023-07-29T03:06:24;95658.13;;;20.49;63.68
81025;BME280;70500;50.292;6.666;2023-07-29T03:08:53;95658.13;;;20.49;63.45
81025;BME280;70500;50.292;6.666;2023-07-29T03:11:22;95656.66;;;20.48;63.76
81025;BME280;70500;50.292;6.666;2023-07-29T03:13:51;95654.66;;;20.49;63.44
81025;BME280;70500;50.292;6.666;2023-07-29T03:16:20;95662.59;;;20.52;63.58
81025;BME280;70500;50.292;6.666;2023-07-29T03:18:55;95667.31;;;20.52;63.23
81025;BME280;70500;50.292;6.666;2023-07-29T03:21:25;95658.38;;;20.51;63.14
81025;BME280;70500;50.292;6.666;2023-07-29T03:23:54;95660.88;;;20.49;63.13
81025;BME280;70500;50.292;6.666;2023-07-29T03:26:23;95671.31;;;20.51;63.08
81025;BME280;70500;50.292;6.666;2023-07-29T03:28:53;95674.03;;;20.51;63.13
81025;BME280;70500;50.292;6.666;2023-07-29T03:31:22;95672.31;;;20.48;63.43
81025;BME280;70500;50.292;6.666;2023-07-29T03:33:51;95677.50;;;20.51;63.22
81025;BME280;70500;50.292;6.666;2023-07-29T03:36:22;95676.78;;;20.51;63.23
81025;BME280;70500;50.292;6.666;2023-07-29T03:38:53;95687.47;;;20.49;63.07
81025;BME280;70500;50.292;6.666;2023-07-29T03:41:22;95698.63;;;20.51;63.13
81025;BME280;70500;50.292;6.666;2023-07-29T03:43:51;95697.16;;;20.50;63.12
81025;BME280;70500;50.292;6.666;2023-07-29T03:46:20;95691.69;;;20.50;63.43
81025;BME280;70500;50.292;6.666;2023-07-29T03:48:50;95687.47;;;20.49;63.18
81025;BME280;70500;50.292;6.666;2023-07-29T03:51:20;95697.16;;;20.50;63.28
81025;BME280;70500;50.292;6.666;2023-07-29T03:53:51;95703.38;;;20.50;63.11
81025;BME280;70500;50.292;6.666;2023-07-29T03:56:20;95696.91;;;20.48;63.01
81025;BME280;70500;50.292;6.666;2023-07-29T03:58:49;95697.16;;;20.50;62.93
81025;BME280;70500;50.292;6.666;2023-07-29T04:01:19;95701.88;;;20.49;63.29
81025;BME280;70500;50.292;6.666;2023-07-29T04:03:48;95699.88;;;20.50;63.19
81025;BME280;70500;50.292;6.666;2023-07-29T04:06:19;95697.91;;;20.50;63.10
81025;BME280;70500;50.292;6.666;2023-07-29T04:08:50;95700.16;;;20.46;63.20
81025;BME280;70500;50.292;6.666;2023-07-29T04:11:20;95698.88;;;20.53;62.91
81025;BME280;70500;50.292;6.666;2023-07-29T04:13:49;95688.94;;;20.50;63.22
81025;BME280;70500;50.292;6.666;2023-07-29T04:16:19;95691.69;;;20.50;63.21
81025;BME280;70500;50.292;6.666;2023-07-29T04:18:48;95692.44;;;20.50;62.98
81025;BME280;70500;50.292;6.666;2023-07-29T04:21:17;95698.63;;;20.51;62.98
81025;BME280;70500;50.292;6.666;2023-07-29T04:23:46;95704.59;;;20.49;63.04
81025;BME280;70500;50.292;6.666;2023-07-29T04:26:17;95709.56;;;20.51;63.13
81025;BME280;70500;50.292;6.666;2023-07-29T04:28:46;95707.09;;;20.53;63.11
81025;BME280;70500;50.292;6.666;2023-07-29T04:31:15;95709.06;;;20.52;63.05
81025;BME280;70500;50.292;6.666;2023-07-29T04:33:44;95710.06;;;20.49;63.00
81025;BME280;70500;50.292;6.666;2023-07-29T04:36:13;95702.84;;;20.52;62.99
81025;BME280;70500;50.292;6.666;2023-07-29T04:38:44;95707.59;;;20.51;62.98
81025;BME280;70500;50.292;6.666;2023-07-29T04:41:14;95703.13;;;20.48;63.14
81025;BME280;70500;50.292;6.666;2023-07-29T04:43:44;95686.72;;;20.48;62.99
81025;BME280;70500;50.292;6.666;2023-07-29T04:46:13;95689.44;;;20.48;63.11
81025;BME280;70500;50.292;6.666;2023-07-29T04:48:43;95683.47;;;20.50;63.04
81025;BME280;70500;50.292;6.666;2023-07-29T04:51:12;95694.41;;;20.50;63.00
81025;BME280;70500;50.292;6.666;2023-07-29T04:53:41;95695.66;;;20.49;63.08
81025;BME280;70500;50.292;6.666;2023-07-29T04:56:10;95701.38;;;20.51;62.75
81025;BME280;70500;50.292;6.666;2023-07-29T04:58:42;95700.16;;;20.46;62.97
81025;BME280;70500;50.292;6.666;2023-07-29T05:01:12;95693.44;;;20.47;63.10
81025;BME280;70500;50.292;6.666;2023-07-29T05:03:41;95691.19;;;20.46;62.81
81025;BME280;70500;50.292;6.666;2023-07-29T05:06:12;95671.31;;;20.45;62.96
81025;BME280;70500;50.292;6.666;2023-07-29T05:08:41;95685.72;;;20.46;62.97
81025;BME280;70500;50.292;6.666;2023-07-29T05:11:10;95696.94;;;20.42;62.84
81025;BME280;70500;50.292;6.666;2023-07-29T05:13:40;95702.63;;;20.44;63.09
81025;BME280;70500;50.292;6.666;2023-07-29T05:16:13;95703.38;;;20.45;62.89
81025;BME280;70500;50.292;6.666;2023-07-29T05:18:42;95696.72;;;20.40;62.93
81025;BME280;70500;50.292;6.666;2023-07-29T05:21:11;95702.91;;;20.41;63.08
81025;BME280;70500;50.292;6.666;2023-07-29T05:23:42;95694.72;;;20.41;62.97
81025;BME280;70500;50.292;6.666;2023-07-29T05:26:11;95680.78;;;20.44;63.00
81025;BME280;70500;50.292;6.666;2023-07-29T05:28:40;95680.03;;;20.44;62.83
81025;BME280;70500;50.292;6.666;2023-07-29T05:31:09;95688.97;;;20.44;63.00
81025;BME280;70500;50.292;6.666;2023-07-29T05:33:39;95690.22;;;20.43;62.91
81025;BME280;70500;50.292;6.666;2023-07-29T05:36:09;95681.06;;;20.41;63.07
81025;BME280;70500;50.292;6.666;2023-07-29T05:38:38;95685.03;;;20.40;62.89
81025;BME280;70500;50.292;6.666;2023-07-29T05:41:08;95702.41;;;20.42;63.19
81025;BME280;70500;50.292;6.666;2023-07-29T05:43:37;95706.41;;;20.41;63.00
81025;BME280;70500;50.292;6.666;2023-07-29T05:46:06;95707.34;;;20.44;62.87
81025;BME280;70500;50.292;6.666;2023-07-29T05:48:35;95714.06;;;20.43;62.97
81025;BME280;70500;50.292;6.666;2023-07-29T05:51:06;95726.03;;;20.40;62.98
81025;BME280;70500;50.292;6.666;2023-07-29T05:53:35;95732.47;;;20.42;62.92
81025;BME280;70500;50.292;6.666;2023-07-29T05:56:04;95732.47;;;20.42;62.89
81025;BME280;70500;50.292;6.666;2023-07-29T05:58:33;95728.28;;;20.41;63.01
81025;BME280;70500;50.292;6.666;2023-07-29T06:01:03;95730.72;;;20.45;63.05
81025;BME280;70500;50.292;6.666;2023-07-29T06:03:32;95731.97;;;20.44;62.94
81025;BME280;70500;50.292;6.666;2023-07-29T06:06:01;95733.94;;;20.43;62.92
81025;BME280;70500;50.292;6.666;2023-07-29T06:08:33;95731.50;;;20.40;63.32
81025;BME280;70500;50.292;6.666;2023-07-29T06:11:02;95728.78;;;20.40;63.04
81025;BME280;70500;50.292;6.666;2023-07-29T06:13:33;95735.72;;;20.41;63.03
81025;BME280;70500;50.292;6.666;2023-07-29T06:16:03;95742.44;;;20.40;63.05
81025;BME280;70500;50.292;6.666;2023-07-29T06:18:32;95743.94;;;20.41;63.17
81025;BME280;70500;50.292;6.666;2023-07-29T06:21:01;95740.44;;;20.40;63.02
81025;BME280;70500;50.292;6.666;2023-07-29T06:23:36;95748.41;;;20.38;63.21
81025;BME280;70500;50.292;6.666;2023-07-29T06:26:05;95757.34;;;20.39;63.19
81025;BME280;70500;50.292;6.666;2023-07-29T06:28:35;95755.34;;;20.39;62.97
81025;BME280;70500;50.292;6.666;2023-07-29T06:31:04;95752.13;;;20.41;63.17
81025;BME280;70500;50.292;6.666;2023-07-29T06:33:33;95756.56;;;20.44;63.06
81025;BME280;70500;50.292;6.666;2023-07-29T06:36:03;95756.56;;;20.44;63.09
81025;BME280;70500;50.292;6.666;2023-07-29T06:38:32;95738.16;;;20.44;63.20
81025;BME280;70500;50.292;6.666;2023-07-29T06:41:03;95750.34;;;20.43;62.88
81025;BME280;70500;50.292;6.666;2023-07-29T06:43:32;95739.94;;;20.42;62.88
81025;BME280;70500;50.292;6.666;2023-07-29T06:46:01;95739.19;;;20.41;63.13
81025;BME280;70500;50.292;6.666;2023-07-29T06:48:30;95739.19;;;20.41;63.24
81025;BME280;70500;50.292;6.666;2023-07-29T06:50:59;95738.47;;;20.41;63.39
81025;BME280;70500;50.292;6.666;2023-07-29T06:53:30;95744.13;;;20.43;63.43
81025;BME280;70500;50.292;6.666;2023-07-29T06:56:03;95750.34;;;20.43;63.58
81025;BME280;70500;50.292;6.666;2023-07-29T06:58:32;95748.16;;;20.42;63.28
81025;BME280;70500;50.292;6.666;2023-07-29T07:01:01;95754.56;;;20.44;63.23
81025;BME280;70500;50.292;6.666;2023-07-29T07:03:31;95765.50;;;20.44;63.44
81025;BME280;70500;50.292;6.666;2023-07-29T07:06:00;95759.03;;;20.47;63.54
81025;BME280;70500;50.292;6.666;2023-07-29T07:08:29;95757.31;;;20.44;63.57
81025;BME280;70500;50.292;6.666;2023-07-29T07:10:59;95754.81;;;20.46;63.29
81025;BME280;70500;50.292;6.666;2023-07-29T07:13:29;95762.00;;;20.49;63.50
81025;BME280;70500;50.292;6.666;2023-07-29T07:15:58;95758.28;;;20.52;63.26
81025;BME280;70500;50.292;6.666;2023-07-29T07:18:27;95760.53;;;20.48;63.62
81025;BME280;70500;50.292;6.666;2023-07-29T07:20:56;95754.81;;;20.52;63.41
81025;BME280;70500;50.292;6.666;2023-07-29T07:23:26;95763.50;;;20.50;63.58
81025;BME280;70500;50.292;6.666;2023-07-29T07:25:55;95761.50;;;20.51;63.93
81025;BME280;70500;50.292;6.666;2023-07-29T07:28:24;95760.50;;;20.54;63.29
81025;BME280;70500;50.292;6.666;2023-07-29T07:30:54;95765.72;;;20.57;63.45
81025;BME280;70500;50.292;6.666;2023-07-29T07:33:23;95763.50;;;20.56;63.37
81025;BME280;70500;50.292;6.666;2023-07-29T07:35:53;95771.94;;;20.58;63.42
81025;BME280;70500;50.292;6.666;2023-07-29T07:38:22;95775.91;;;20.57;63.40
81025;BME280;70500;50.292;6.666;2023-07-29T07:40:54;95774.66;;;20.58;63.38
81025;BME280;70500;50.292;6.666;2023-07-29T07:43:24;95770.44;;;20.57;63.10
81025;BME280;70500;50.292;6.666;2023-07-29T07:45:59;95771.69;;;20.56;63.12
81025;BME280;70500;50.292;6.666;2023-07-29T07:48:28;95776.66;;;20.57;63.08
81025;BME280;70500;50.292;6.666;2023-07-29T07:50:57;95779.34;;;20.63;63.09
81025;BME280;70500;50.292;6.666;2023-07-29T07:53:26;95782.88;;;20.58;63.38
81025;BME280;70500;50.292;6.666;2023-07-29T07:55:55;95791.06;;;20.58;63.69
81025;BME280;70500;50.292;6.666;2023-07-29T07:58:24;95801.72;;;20.61;63.25
81025;BME280;70500;50.292;6.666;2023-07-29T08:01:02;95805.00;;;20.54;63.50
81025;BME280;70500;50.292;6.666;2023-07-29T08:03:32;95802.28;;;20.54;63.17
81025;BME280;70500;50.292;6.666;2023-07-29T08:06:02;95804.28;;;20.48;63.05
81025;BME280;70500;50.292;6.666;2023-07-29T08:08:31;95806.78;;;20.41;62.64
81025;BME280;70500;50.292;6.666;2023-07-29T08:11:00;95797.34;;;20.42;62.87
81025;BME280;70500;50.292;6.666;2023-07-29T08:13:29;95800.09;;;20.42;62.51
81025;BME280;70500;50.292;6.666;2023-07-29T08:15:59;95800.09;;;20.42;62.62
81025;BME280;70500;50.292;6.666;2023-07-29T08:18:29;95794.88;;;20.38;62.58
81025;BME280;70500;50.292;6.666;2023-07-29T08:21:01;95807.03;;;20.37;62.54
81025;BME280;70500;50.292;6.666;2023-07-29T08:23:33;95807.78;;;20.38;62.10
81025;BME280;70500;50.292;6.666;2023-07-29T08:26:04;95810.53;;;20.38;62.36
81025;BME280;70500;50.292;6.666;2023-07-29T08:28:37;95811.75;;;20.37;62.39
81025;BME280;70500;50.292;6.666;2023-07-29T08:31:07;95812.50;;;20.37;62.42
81025;BME280;70500;50.292;6.666;2023-07-29T08:33:38;95804.56;;;20.34;62.23
81025;BME280;70500;50.292;6.666;2023-07-29T08:36:08;95807.78;;;20.38;62.53
81025;BME280;70500;50.292;6.666;2023-07-29T08:38:37;95808.78;;;20.40;61.90
81025;BME280;70500;50.292;6.666;2023-07-29T08:41:13;95807.75;;;20.49;61.94
81025;BME280;70500;50.292;6.666;2023-07-29T08:43:49;95804.94;;;20.77;61.66
81025;BME280;70500;50.292;6.666;2023-07-29T08:46:20;95800.97;;;20.72;61.66
81025;BME280;70500;50.292;6.666;2023-07-29T08:48:51;95805.19;;;20.68;62.18
81025;BME280;70500;50.292;6.666;2023-07-29T08:51:21;95807.69;;;20.71;62.44
81025;BME280;70500;50.292;6.666;2023-07-29T08:53:52;95806.94;;;20.71;62.30
81025;BME280;70500;50.292;6.666;2023-07-29T08:56:23;95804.19;;;20.76;61.73
81025;BME280;70500;50.292;6.666;2023-07-29T08:58:53;95802.72;;;21.22;60.34
81025;BME280;70500;50.292;6.666;2023-07-29T09:01:22;95806.59;;;20.91;61.48
81025;BME280;70500;50.292;6.666;2023-07-29T09:03:53;95808.81;;;20.92;61.43
81025;BME280;70500;50.292;6.666;2023-07-29T09:06:23;95800.41;;;20.85;61.95
81025;BME280;70500;50.292;6.666;2023-07-29T09:08:55;95802.88;;;20.83;61.71
81025;BME280;70500;50.292;6.666;2023-07-29T09:11:25;95804.13;;;20.87;61.51
81025;BME280;70500;50.292;6.666;2023-07-29T09:13:54;95806.63;;;20.85;61.33
81025;BME280;70500;50.292;6.666;2023-07-29T09:16:24;95804.84;;;20.99;60.66
81025;BME280;70500;50.292;6.666;2023-07-29T09:18:55;95805.38;;;20.86;60.89
81025;BME280;70500;50.292;6.666;2023-07-29T09:21:25;95804.88;;;20.82;60.72
81025;BME280;70500;50.292;6.666;2023-07-29T09:23:56;95809.84;;;20.84;61.23
81025;BME280;70500;50.292;6.666;2023-07-29T09:26:26;95807.91;;;20.79;60.52
81025;BME280;70500;50.292;6.666;2023-07-29T09:28:57;95815.88;;;20.77;60.19
81025;BME280;70500;50.292;6.666;2023-07-29T09:31:29;95821.84;;;20.75;60.21
81025;BME280;70500;50.292;6.666;2023-07-29T09:34:02;95819.84;;;20.76;60.07
81025;BME280;70500;50.292;6.666;2023-07-29T09:36:33;95812.34;;;20.82;60.10
81025;BME280;70500;50.292;6.666;2023-07-29T09:39:10;95814.88;;;20.80;59.89
81025;BME280;70500;50.292;6.666;2023-07-29T09:41:40;95813.09;;;20.82;59.41
81025;BME280;70500;50.292;6.666;2023-07-29T09:44:10;95813.59;;;20.81;59.20
81025;BME280;70500;50.292;6.666;2023-07-29T09:46:39;95821.28;;;20.82;58.89
81025;BME280;70500;50.292;6.666;2023-07-29T09:49:10;95813.06;;;20.93;58.94
81025;BME280;70500;50.292;6.666;2023-07-29T09:51:39;95812.56;;;20.95;59.11
81025;BME280;70500;50.292;6.666;2023-07-29T09:54:10;95820.25;;;21.02;59.37
81025;BME280;70500;50.292;6.666;2023-07-29T09:56:41;95819.97;;;21.11;60.46
81025;BME280;70500;50.292;6.666;2023-07-29T09:59:12;95815.72;;;21.10;61.58
81025;BME280;70500;50.292;6.666;2023-07-29T10:01:42;95819.13;;;21.22;61.71
81025;BME280;70500;50.292;6.666;2023-07-29T10:04:13;95825.41;;;21.17;61.30
81025;BME280;70500;50.292;6.666;2023-07-29T10:06:45;95825.13;;;21.20;61.20
81025;BME280;70500;50.292;6.666;2023-07-29T10:09:15;95828.09;;;21.22;61.47
81025;BME280;70500;50.292;6.666;2023-07-29T10:11:45;95823.84;;;21.27;61.47
81025;BME280;70500;50.292;6.666;2023-07-29T10:14:15;95812.91;;;21.27;61.90
81025;BME280;70500;50.292;6.666;2023-07-29T10:16:46;95816.34;;;21.33;61.31
81025;BME280;70500;50.292;6.666;2023-07-29T10:19:17;95812.38;;;21.34;61.34
81025;BME280;70500;50.292;6.666;2023-07-29T10:21:48;95805.13;;;21.37;60.98
81025;BME280;70500;50.292;6.666;2023-07-29T10:24:19;95806.84;;;21.40;60.28
81025;BME280;70500;50.292;6.666;2023-07-29T10:26:58;95800.41;;;21.37;60.86
81025;BME280;70500;50.292;6.666;2023-07-29T10:29:31;95813.38;;;21.31;59.31
81025;BME280;70500;50.292;6.666;2023-07-29T10:32:02;95807.75;;;21.18;59.49
81025;BME280;70500;50.292;6.666;2023-07-29T10:34:34;95813.75;;;21.11;59.40
81025;BME280;70500;50.292;6.666;2023-07-29T10:37:05;95805.53;;;21.11;59.25
81025;BME280;70500;50.292;6.666;2023-07-29T10:39:41;95797.59;;;21.07;60.17
81025;BME280;70500;50.292;6.666;2023-07-29T10:42:20;95813.75;;;21.11;59.98
81025;BME280;70500;50.292;6.666;2023-07-29T10:44:52;95813.75;;;21.05;59.70
81025;BME280;70500;50.292;6.666;2023-07-29T10:47:23;95814.03;;;21.02;59.81
81025;BME280;70500;50.292;6.666;2023-07-29T10:49:55;95794.84;;;21.07;59.90
81025;BME280;70500;50.292;6.666;2023-07-29T10:52:30;95807.28;;;21.08;59.66
81025;BME280;70500;50.292;6.666;2023-07-29T10:55:01;95804.53;;;21.14;59.36
81025;BME280;70500;50.292;6.666;2023-07-29T10:57:33;95803.50;;;21.17;59.42
81025;BME280;70500;50.292;6.666;2023-07-29T11:00:05;95798.28;;;21.19;59.21
81025;BME280;70500;50.292;6.666;2023-07-29T11:02:36;95799.75;;;21.20;59.10
81025;BME280;70500;50.292;6.666;2023-07-29T11:05:15;95796.50;;;21.21;59.21
81025;BME280;70500;50.292;6.666;2023-07-29T11:07:46;95795.75;;;21.21;59.05
81025;BME280;70500;50.292;6.666;2023-07-29T11:10:16;95801.97;;;21.21;58.86
81025;BME280;70500;50.292;6.666;2023-07-29T11:12:46;95797.75;;;21.20;58.78
81025;BME280;70500;50.292;6.666;2023-07-29T11:15:18;95789.31;;;21.18;58.71
81025;BME280;70500;50.292;6.666;2023-07-29T11:17:50;95797.53;;;21.18;58.97
81025;BME280;70500;50.292;6.666;2023-07-29T11:20:23;95802.78;;;21.16;59.05
81025;BME280;70500;50.292;6.666;2023-07-29T11:22:54;95800.03;;;21.16;58.72
81025;BME280;70500;50.292;6.666;2023-07-29T11:25:26;95802.25;;;21.18;58.68
81025;BME280;70500;50.292;6.666;2023-07-29T11:27:57;95792.28;;;21.20;58.70
81025;BME280;70500;50.292;6.666;2023-07-29T11:30:26;95795.25;;;21.22;58.71
81025;BME280;70500;50.292;6.666;2023-07-29T11:32:58;95783.56;;;21.22;58.80
81025;BME280;70500;50.292;6.666;2023-07-29T11:35:29;95789.78;;;21.22;58.92
81025;BME280;70500;50.292;6.666;2023-07-29T11:37:58;95788.03;;;21.25;58.83
81025;BME280;70500;50.292;6.666;2023-07-29T11:40:27;95785.53;;;21.27;58.79
81025;BME280;70500;50.292;6.666;2023-07-29T11:42:56;95788.50;;;21.29;58.71
81025;BME280;70500;50.292;6.666;2023-07-29T11:45:26;95781.06;;;21.24;60.33
81025;BME280;70500;50.292;6.666;2023-07-29T11:48:13;95792.28;;;21.20;60.51
81025;BME280;70500;50.292;6.666;2023-07-29T11:50:45;95796.03;;;21.17;61.46
81025;BME280;70500;50.292;6.666;2023-07-29T11:53:15;95795.50;;;21.24;60.87
81025;BME280;70500;50.292;6.666;2023-07-29T11:55:44;95790.47;;;21.34;60.99
81025;BME280;70500;50.292;6.666;2023-07-29T11:58:15;95781.75;;;21.36;60.54
81025;BME280;70500;50.292;6.666;2023-07-29T12:00:44;95784.91;;;21.45;60.60
81025;BME280;70500;50.292;6.666;2023-07-29T12:03:15;95774.66;;;21.51;60.73
81025;BME280;70500;50.292;6.666;2023-07-29T12:05:48;95778.38;;;21.54;60.72
81025;BME280;70500;50.292;6.666;2023-07-29T12:08:17;95771.66;;;21.55;60.48
81025;BME280;70500;50.292;6.666;2023-07-29T12:10:47;95764.09;;;21.61;60.42
81025;BME280;70500;50.292;6.666;2023-07-29T12:13:16;95753.38;;;21.63;60.45
81025;BME280;70500;50.292;6.666;2023-07-29T12:15:45;95756.88;;;21.63;59.91
81025;BME280;70500;50.292;6.666;2023-07-29T12:18:14;95758.13;;;21.62;60.13
81025;BME280;70500;50.292;6.666;2023-07-29T12:20:43;95753.13;;;21.67;59.89
81025;BME280;70500;50.292;6.666;2023-07-29T12:23:14;95758.31;;;21.70;60.05
81025;BME280;70500;50.292;6.666;2023-07-29T12:25:43;95752.06;;;21.75;59.97
81025;BME280;70500;50.292;6.666;2023-07-29T12:28:13;95757.53;;;21.75;59.67
81025;BME280;70500;50.292;6.666;2023-07-29T12:30:42;95761.22;;;21.83;59.55
81025;BME280;70500;50.292;6.666;2023-07-29T12:33:11;95759.97;;;21.84;59.68
81025;BME280;70500;50.292;6.666;2023-07-29T12:35:40;95763.44;;;21.85;59.24
81025;BME280;70500;50.292;6.666;2023-07-29T12:38:10;95765.75;;;21.75;58.94
81025;BME280;70500;50.292;6.666;2023-07-29T12:40:40;95768.44;;;21.81;59.57
81025;BME280;70500;50.292;6.666;2023-07-29T12:43:09;95759.44;;;21.86;59.19
81025;BME280;70500;50.292;6.666;2023-07-29T12:45:39;95777.13;;;21.85;59.00
81025;BME280;70500;50.292;6.666;2023-07-29T12:48:09;95780.63;;;21.85;59.23
81025;BME280;70500;50.292;6.666;2023-07-29T12:50:38;95772.41;;;21.85;58.73
81025;BME280;70500;50.292;6.666;2023-07-29T12:53:08;95771.91;;;21.87;58.66
81025;BME280;70500;50.292;6.666;2023-07-29T12:55:40;95760.19;;;21.86;58.90
81025;BME280;70500;50.292;6.666;2023-07-29T12:58:09;95770.41;;;21.86;58.84
81025;BME280;70500;50.292;6.666;2023-07-29T13:00:38;95778.63;;;21.86;58.96
81025;BME280;70500;50.292;6.666;2023-07-29T13:03:07;95771.38;;;21.88;58.85
81025;BME280;70500;50.292;6.666;2023-07-29T13:05:37;95766.13;;;21.90;59.16
81025;BME280;70500;50.292;6.666;2023-07-29T13:08:06;95772.81;;;21.95;58.83
81025;BME280;70500;50.292;6.666;2023-07-29T13:10:35;95767.03;;;21.98;58.72
81025;BME280;70500;50.292;6.666;2023-07-29T13:13:05;95773.50;;;22.01;58.89
81025;BME280;70500;50.292;6.666;2023-07-29T13:15:34;95775.72;;;22.03;58.93